Decoded Metar for ULPB ( in ) (IATA:) | Meteo·Mobile Aviation Weather
aviador You're here:

ULPB Decoded Metar

in
Report Time2018-08-18 07:30:00
UTC Time2018-08-18 08:06:08
Flight Rules vfr VFR
Wind220° at 10 kt
W.Decomp.*RWY 19: 8.7 kt HW 5.0 kt RCW
W.Rank220° ranks 4
Current wind is above 220° avg. (7.6)
Visibility9999 m
Phenomena:N/A
Clouds:N/A
Expected CloudBase > 4,000 ft AGL from Temp-Dew spread
CeilingNone
Temp23°C
Dew Point13°C (53% RH)
AAT20.3°C
QNH1018 hPa
Raw Report
METAR ULPB 180730Z 22005MPS 190V260 CAVOK 23/13 Q1018 R19/09//70
NOSIG RMK QFE760/1013=

Extra information for ULPB:More info

Social comments